Time;durP1;ratioP1;P1;durP2;ratioP2;P2;SDS_P1;SDS_P2;PMS_P1;PMS_P2;Temp;Humidity;BMP_temperature;BMP_pressure;BME280_temperature;BME280_humidity;BME280_pressure;Samples;Min_cycle;Max_cycle;Signal;HPM_P1;HPM_P2
2020/12/09 00:02:05;;;;;;;53.35;30.35;;;4.80;99.90;;;;;;5100758;28;20048;-78
2020/12/09 00:04:31;;;;;;;54.13;29.17;;;4.70;99.90;;;;;;5100138;28;20074;-76
2020/12/09 00:06:57;;;;;;;55.95;29.85;;;4.70;99.90;;;;;;5099602;28;20503;-78
2020/12/09 00:09:25;;;;;;;51.22;29.08;;;4.80;99.90;;;;;;5098222;28;20123;-78
2020/12/09 00:11:53;;;;;;;50.00;28.85;;;4.80;99.90;;;;;;5097166;28;20055;-78
2020/12/09 00:14:21;;;;;;;49.05;27.50;;;4.80;99.90;;;;;;5098798;28;20047;-78
2020/12/09 00:16:47;;;;;;;54.90;29.95;;;4.90;99.90;;;;;;5097840;28;20522;-77
2020/12/09 00:19:14;;;;;;;56.78;31.52;;;4.80;99.90;;;;;;5099564;28;20044;-78
2020/12/09 00:21:40;;;;;;;59.60;31.20;;;4.80;99.90;;;;;;5100300;28;20146;-78
2020/12/09 00:24:07;;;;;;;53.95;30.92;;;4.80;99.90;;;;;;5101152;28;20577;-77
2020/12/09 00:26:34;;;;;;;57.90;31.35;;;4.80;99.90;;;;;;5100537;28;20075;-78
2020/12/09 00:29:02;;;;;;;54.03;30.33;;;4.90;99.90;;;;;;5101217;28;20039;-78
2020/12/09 00:31:31;;;;;;;53.15;29.92;;;4.90;99.90;;;;;;5104790;28;20048;-78
2020/12/09 00:33:59;;;;;;;50.80;28.85;;;4.90;99.90;;;;;;5101571;28;20074;-77
2020/12/09 00:36:25;;;;;;;52.13;30.58;;;4.90;99.90;;;;;;5101280;28;20519;-79
2020/12/09 00:38:53;;;;;;;49.92;29.80;;;4.80;99.90;;;;;;5102368;28;20047;-78
2020/12/09 00:41:23;;;;;;;52.08;29.15;;;4.90;99.90;;;;;;5100136;28;20082;-78
2020/12/09 00:43:51;;;;;;;48.78;29.58;;;4.90;99.90;;;;;;5100412;28;20090;-79
2020/12/09 00:46:18;;;;;;;45.03;28.48;;;5.00;99.90;;;;;;5100510;28;20055;-79
2020/12/09 00:48:45;;;;;;;51.88;29.67;;;5.00;99.90;;;;;;5100248;28;20094;-80
2020/12/09 00:51:12;;;;;;;50.70;28.95;;;5.00;99.90;;;;;;5101644;28;20048;-80
2020/12/09 00:53:39;;;;;;;47.08;28.17;;;5.00;99.90;;;;;;5102496;28;20074;-80
2020/12/09 00:56:07;;;;;;;46.25;27.40;;;5.00;99.90;;;;;;5105805;28;20083;-79
2020/12/09 00:58:33;;;;;;;42.80;26.35;;;5.00;99.90;;;;;;5103945;28;20044;-80
2020/12/09 01:01:01;;;;;;;45.10;27.70;;;5.00;99.90;;;;;;5102984;28;20071;-79
2020/12/09 01:03:27;;;;;;;41.92;26.63;;;4.90;99.90;;;;;;5104825;28;20075;-80
2020/12/09 01:05:54;;;;;;;43.50;27.35;;;4.80;99.90;;;;;;5105353;28;20071;-80
2020/12/09 01:08:20;;;;;;;43.90;26.85;;;4.70;99.90;;;;;;5105072;28;20131;-80
2020/12/09 01:10:47;;;;;;;45.60;27.02;;;4.70;99.90;;;;;;5120880;22;20072;-75
2020/12/09 01:13:14;;;;;;;44.83;27.70;;;4.80;99.90;;;;;;5092095;28;20075;-74
2020/12/09 01:15:41;;;;;;;45.85;28.42;;;4.70;99.90;;;;;;5092456;28;20087;-74
2020/12/09 01:18:08;;;;;;;49.85;28.95;;;4.60;99.90;;;;;;5092495;28;20083;-75
2020/12/09 01:20:34;;;;;;;46.60;28.80;;;4.60;99.90;;;;;;5092168;28;20123;-75
2020/12/09 01:23:01;;;;;;;48.65;30.20;;;4.60;99.90;;;;;;5091998;28;20132;-73
2020/12/09 01:25:27;;;;;;;48.47;28.55;;;4.50;99.90;;;;;;5092481;28;20139;-73
2020/12/09 01:27:55;;;;;;;49.70;28.60;;;4.40;99.90;;;;;;5092280;28;20130;-74
2020/12/09 01:30:21;;;;;;;49.10;30.10;;;4.50;99.90;;;;;;5092141;28;20079;-74
2020/12/09 01:32:48;;;;;;;46.03;29.63;;;4.50;99.90;;;;;;5091735;28;20130;-75
2020/12/09 01:35:15;;;;;;;51.20;31.30;;;4.50;99.90;;;;;;5092012;28;20143;-73
2020/12/09 01:37:41;;;;;;;50.13;31.52;;;4.40;99.90;;;;;;5091996;28;20127;-76
2020/12/09 01:40:08;;;;;;;52.97;31.92;;;4.50;99.90;;;;;;5091887;28;20123;-75
2020/12/09 01:42:34;;;;;;;56.80;31.25;;;4.50;99.90;;;;;;5091620;28;20135;-75
2020/12/09 01:45:00;;;;;;;52.13;31.08;;;4.50;99.90;;;;;;5092000;28;20079;-75
2020/12/09 01:47:27;;;;;;;51.08;32.13;;;4.50;99.90;;;;;;5091755;28;20132;-76
2020/12/09 01:49:54;;;;;;;53.15;34.05;;;4.50;99.90;;;;;;5091938;28;20131;-76
2020/12/09 01:52:22;;;;;;;55.60;33.53;;;4.50;99.90;;;;;;5091519;28;20130;-76
2020/12/09 01:54:52;;;;;;;57.80;34.05;;;4.60;99.90;;;;;;5091817;28;20193;-75
2020/12/09 01:57:18;;;;;;;63.40;33.13;;;4.60;99.90;;;;;;5091919;28;20047;-74
2020/12/09 01:59:45;;;;;;;58.92;34.67;;;4.60;99.90;;;;;;5091559;28;20127;-75
2020/12/09 02:02:12;;;;;;;58.03;35.63;;;4.50;99.90;;;;;;5091843;28;20051;-74
2020/12/09 02:04:39;;;;;;;61.15;35.83;;;4.60;99.90;;;;;;5092094;28;20131;-76
2020/12/09 02:07:05;;;;;;;58.88;34.25;;;4.60;99.90;;;;;;5091957;28;20431;-75
2020/12/09 02:09:32;;;;;;;54.22;32.53;;;4.40;99.90;;;;;;5091853;28;20127;-75
2020/12/09 02:11:59;;;;;;;57.63;35.10;;;4.40;99.90;;;;;;5091480;28;20090;-75
2020/12/09 02:14:27;;;;;;;58.03;33.72;;;4.40;99.90;;;;;;5091719;28;20126;-76
2020/12/09 02:16:55;;;;;;;53.42;32.53;;;4.40;99.90;;;;;;5092042;28;20048;-74
2020/12/09 02:19:22;;;;;;;52.63;31.80;;;4.30;99.90;;;;;;5091891;28;20101;-74
2020/12/09 02:21:49;;;;;;;52.30;30.52;;;4.20;99.90;;;;;;5091273;28;20134;-75
2020/12/09 02:24:17;;;;;;;53.90;31.98;;;4.10;99.90;;;;;;5091588;28;20127;-76
2020/12/09 02:26:45;;;;;;;53.10;31.13;;;4.00;99.90;;;;;;5091416;28;20135;-76
2020/12/09 02:29:11;;;;;;;54.67;32.45;;;3.90;99.90;;;;;;5091303;28;20527;-75
2020/12/09 02:31:38;;;;;;;56.40;32.53;;;3.80;99.90;;;;;;5091342;28;20134;-76
2020/12/09 02:34:06;;;;;;;50.75;30.95;;;3.80;99.90;;;;;;5091575;28;20131;-74
2020/12/09 02:36:33;;;;;;;55.67;31.75;;;3.70;99.90;;;;;;5091439;28;20088;-74
2020/12/09 02:39:00;;;;;;;53.13;30.80;;;3.60;99.90;;;;;;5091437;28;20059;-75
2020/12/09 02:41:27;;;;;;;56.63;31.27;;;3.60;99.90;;;;;;5093755;28;20106;-78
2020/12/09 02:43:53;;;;;;;52.75;30.80;;;3.60;99.90;;;;;;5095476;28;20135;-75
2020/12/09 02:46:20;;;;;;;55.83;32.17;;;3.60;99.90;;;;;;5095366;28;20476;-76
2020/12/09 02:48:46;;;;;;;54.65;31.42;;;3.70;99.90;;;;;;5095485;28;20094;-75
2020/12/09 02:51:12;;;;;;;52.50;30.67;;;3.70;99.90;;;;;;5094941;28;20123;-76
2020/12/09 02:53:39;;;;;;;50.20;28.67;;;3.70;99.90;;;;;;5095072;28;20135;-75
2020/12/09 02:56:06;;;;;;;51.63;30.70;;;3.70;99.90;;;;;;5095064;28;20080;-75
2020/12/09 02:58:32;;;;;;;53.22;33.33;;;3.60;99.90;;;;;;5095214;28;20132;-75
2020/12/09 03:00:59;;;;;;;57.42;33.58;;;3.60;99.90;;;;;;5094763;28;20462;-74
2020/12/09 03:03:25;;;;;;;56.50;32.67;;;3.60;99.90;;;;;;5094814;28;20094;-75
2020/12/09 03:05:54;;;;;;;56.38;33.05;;;3.60;99.90;;;;;;5097672;28;20052;-77
2020/12/09 03:08:21;;;;;;;54.13;31.33;;;3.70;99.90;;;;;;5110034;28;20052;-75
2020/12/09 03:10:47;;;;;;;57.45;33.00;;;3.60;99.90;;;;;;5107566;28;20079;-75
2020/12/09 03:13:14;;;;;;;59.30;33.58;;;3.50;99.90;;;;;;5102225;28;20093;-76
2020/12/09 03:15:41;;;;;;;63.55;35.42;;;3.50;99.90;;;;;;5094920;28;20152;-76
2020/12/09 03:18:07;;;;;;;55.25;32.50;;;3.50;99.90;;;;;;5094964;28;20134;-75
2020/12/09 03:20:33;;;;;;;62.67;34.35;;;3.50;99.90;;;;;;5094970;28;20487;-75
2020/12/09 03:23:00;;;;;;;55.70;33.40;;;3.60;99.90;;;;;;5094850;28;20131;-75
2020/12/09 03:25:26;;;;;;;60.08;33.65;;;3.60;99.90;;;;;;5094565;28;20511;-74
2020/12/09 03:27:53;;;;;;;60.45;34.30;;;3.60;99.90;;;;;;5094933;28;20052;-75
2020/12/09 03:30:20;;;;;;;60.55;33.20;;;3.60;99.90;;;;;;5094739;28;20044;-75
2020/12/09 03:32:46;;;;;;;61.25;33.85;;;3.70;99.90;;;;;;5094493;28;20583;-75
2020/12/09 03:35:13;;;;;;;63.58;34.15;;;3.70;99.90;;;;;;5094542;28;20086;-75
2020/12/09 03:37:39;;;;;;;57.55;34.50;;;3.70;99.90;;;;;;5094033;28;20132;-75
2020/12/09 03:40:05;;;;;;;62.72;34.60;;;3.60;99.90;;;;;;5093964;28;20122;-75
2020/12/09 03:42:32;;;;;;;63.17;35.55;;;3.70;99.90;;;;;;5093939;28;20136;-75
2020/12/09 03:44:58;;;;;;;65.28;34.65;;;3.70;99.90;;;;;;5094144;28;20131;-74
2020/12/09 03:47:25;;;;;;;62.60;35.05;;;3.70;99.90;;;;;;5094004;28;20132;-75
2020/12/09 03:49:52;;;;;;;58.47;34.72;;;3.70;99.90;;;;;;5093117;28;20480;-75
2020/12/09 03:52:18;;;;;;;68.50;36.00;;;3.70;99.90;;;;;;5092280;28;20084;-75
2020/12/09 03:54:44;;;;;;;64.72;36.75;;;3.70;99.90;;;;;;5093816;28;20102;-75
2020/12/09 03:57:11;;;;;;;72.53;36.72;;;3.70;99.90;;;;;;5093768;28;20084;-75
2020/12/09 03:59:37;;;;;;;72.22;38.67;;;3.70;99.90;;;;;;5094099;28;20248;-75
2020/12/09 04:02:03;;;;;;;78.40;38.55;;;3.60;99.90;;;;;;5093036;28;20135;-76
2020/12/09 04:04:31;;;;;;;72.20;38.08;;;3.50;99.90;;;;;;5093685;28;20075;-76
2020/12/09 04:06:57;;;;;;;80.47;40.58;;;3.50;99.90;;;;;;5093685;28;20090;-75
2020/12/09 04:09:23;;;;;;;78.60;39.38;;;3.50;99.90;;;;;;5093527;28;20135;-76
2020/12/09 04:11:50;;;;;;;83.38;41.78;;;3.50;99.90;;;;;;5089239;28;20151;-76
2020/12/09 04:14:16;;;;;;;76.28;40.05;;;3.50;99.90;;;;;;5092653;28;20087;-76
2020/12/09 04:16:43;;;;;;;77.72;37.95;;;3.60;99.90;;;;;;5093111;28;20083;-75
2020/12/09 04:19:09;;;;;;;80.45;39.58;;;3.60;99.90;;;;;;5093016;28;20130;-75
2020/12/09 04:21:36;;;;;;;77.90;39.10;;;3.60;99.90;;;;;;5092543;28;20146;-75
2020/12/09 04:24:03;;;;;;;81.22;40.75;;;3.60;99.90;;;;;;5092244;28;20044;-75
2020/12/09 04:26:29;;;;;;;78.20;40.97;;;3.60;99.90;;;;;;5096314;28;20077;-74
2020/12/09 04:28:56;;;;;;;81.03;43.10;;;3.60;99.90;;;;;;5093014;28;20091;-75
2020/12/09 04:31:22;;;;;;;77.55;40.22;;;3.50;99.90;;;;;;5092747;28;20131;-75
2020/12/09 04:33:56;;;;;;;77.85;40.28;;;3.50;99.90;;;;;;5092391;28;20144;-76
2020/12/09 04:36:23;;;;;;;90.68;43.00;;;3.60;99.90;;;;;;5092903;28;20052;-75
2020/12/09 04:38:50;;;;;;;79.72;40.92;;;3.60;99.90;;;;;;5092888;28;20135;-75
2020/12/09 04:41:17;;;;;;;80.47;41.40;;;3.70;99.90;;;;;;5092327;28;20117;-75
2020/12/09 04:43:43;;;;;;;80.10;39.92;;;3.70;99.90;;;;;;5092489;28;20152;-75
2020/12/09 04:46:10;;;;;;;76.60;40.28;;;3.70;99.90;;;;;;5092912;28;20069;-75
2020/12/09 04:48:40;;;;;;;79.40;41.83;;;3.70;99.90;;;;;;5092216;28;20082;-76
2020/12/09 04:51:35;;;;;;;78.32;40.50;;;3.70;99.90;;;;;;5092119;28;20048;-75
2020/12/09 04:54:02;;;;;;;76.07;39.95;;;3.80;99.90;;;;;;5092211;28;20148;-76
2020/12/09 04:56:37;;;;;;;78.53;40.63;;;3.80;99.90;;;;;;5092316;28;20103;-75
2020/12/09 04:59:14;;;;;;;79.28;40.47;;;3.80;99.90;;;;;;5092475;28;20052;-76
2020/12/09 05:02:00;;;;;;;75.57;41.00;;;3.90;99.90;;;;;;5091864;28;20086;-76
2020/12/09 05:04:29;;;;;;;72.30;38.70;;;3.80;99.90;;;;;;5091998;28;20136;-74
2020/12/09 05:06:56;;;;;;;76.85;41.38;;;3.80;99.90;;;;;;5092240;28;20414;-76
2020/12/09 05:09:27;;;;;;;81.75;41.38;;;3.70;99.90;;;;;;5091980;28;20079;-75
2020/12/09 05:12:02;;;;;;;70.38;39.33;;;3.70;99.90;;;;;;5091574;28;20056;-75
2020/12/09 05:14:30;;;;;;;79.68;41.33;;;3.70;99.90;;;;;;5091828;28;20051;-75
2020/12/09 05:16:58;;;;;;;72.57;38.40;;;3.80;99.90;;;;;;5091973;28;20083;-76
2020/12/09 05:19:25;;;;;;;77.47;39.08;;;3.80;99.90;;;;;;5092066;28;20135;-76
2020/12/09 05:21:51;;;;;;;69.72;38.75;;;3.90;99.90;;;;;;5091789;28;20131;-76
2020/12/09 05:24:19;;;;;;;65.18;37.13;;;3.80;99.90;;;;;;5091650;28;20073;-75
2020/12/09 05:26:47;;;;;;;73.60;38.45;;;3.80;99.90;;;;;;5092181;28;20135;-76
2020/12/09 05:29:15;;;;;;;64.57;35.80;;;3.80;99.90;;;;;;5091977;28;20047;-76
2020/12/09 05:31:44;;;;;;;67.85;36.33;;;3.70;99.90;;;;;;5091231;28;20040;-77
2020/12/09 05:34:26;;;;;;;68.07;36.53;;;3.70;99.90;;;;;;5091231;28;20079;-75
2020/12/09 05:36:54;;;;;;;70.75;36.33;;;3.70;99.90;;;;;;5091871;28;20044;-75
2020/12/09 05:39:21;;;;;;;71.53;37.47;;;3.60;99.90;;;;;;5091843;28;20083;-75
2020/12/09 05:41:48;;;;;;;66.88;38.15;;;3.50;99.90;;;;;;5092861;28;20166;-75
2020/12/09 05:44:15;;;;;;;66.65;37.15;;;3.50;99.90;;;;;;5111551;28;20047;-76
2020/12/09 05:46:58;;;;;;;71.03;39.95;;;3.50;99.90;;;;;;5111780;28;20090;-75
2020/12/09 05:49:26;;;;;;;69.50;38.25;;;3.40;99.90;;;;;;5111703;28;20047;-75
2020/12/09 05:52:14;;;;;;;71.05;38.35;;;3.30;99.90;;;;;;5111447;28;20456;-74
2020/12/09 05:54:43;;;;;;;66.40;36.50;;;3.30;99.90;;;;;;5106824;28;20048;-75
2020/12/09 05:57:13;;;;;;;66.00;38.25;;;3.30;99.90;;;;;;5111777;28;20078;-75
2020/12/09 05:59:40;;;;;;;64.65;37.15;;;3.30;99.90;;;;;;5111399;28;20483;-75
2020/12/09 06:02:12;;;;;;;65.65;37.40;;;3.30;99.90;;;;;;5110878;28;20468;-75
2020/12/09 06:04:46;;;;;;;63.58;37.42;;;3.40;99.90;;;;;;5111991;28;20126;-75
2020/12/09 06:07:13;;;;;;;68.30;36.42;;;3.30;99.90;;;;;;5111504;28;20090;-77
2020/12/09 06:09:40;;;;;;;67.18;37.05;;;3.30;99.90;;;;;;5112088;28;20142;-76
2020/12/09 06:12:07;;;;;;;66.30;37.90;;;3.30;99.90;;;;;;5111400;28;20120;-76
2020/12/09 06:14:34;;;;;;;61.17;36.08;;;3.30;99.90;;;;;;5112496;28;20134;-76
2020/12/09 06:17:00;;;;;;;68.28;37.45;;;3.30;99.90;;;;;;5115972;28;20514;-78
2020/12/09 06:19:27;;;;;;;66.55;38.05;;;3.30;99.90;;;;;;5116385;28;20145;-75
2020/12/09 06:21:56;;;;;;;63.97;36.47;;;3.30;99.90;;;;;;5116291;28;20086;-77
2020/12/09 06:24:23;;;;;;;62.13;36.25;;;3.40;99.90;;;;;;5115992;28;20099;-75
2020/12/09 06:26:50;;;;;;;63.38;35.78;;;3.40;99.90;;;;;;5116395;28;20461;-75
2020/12/09 06:29:23;;;;;;;65.80;37.45;;;3.30;99.90;;;;;;5116338;28;20481;-76
2020/12/09 06:32:00;;;;;;;64.15;36.80;;;3.30;99.90;;;;;;5117174;28;20079;-76
2020/12/09 06:34:26;;;;;;;60.42;35.13;;;3.30;99.90;;;;;;5115947;28;20104;-78
2020/12/09 06:37:12;;;;;;;58.88;35.42;;;3.30;99.90;;;;;;5115761;28;20131;-77
2020/12/09 06:39:39;;;;;;;61.97;36.03;;;3.30;99.90;;;;;;5115937;28;20047;-77
2020/12/09 06:42:10;;;;;;;60.33;35.88;;;3.30;99.90;;;;;;5115983;28;20058;-77
2020/12/09 06:44:50;;;;;;;64.97;35.53;;;3.40;99.90;;;;;;5115867;28;20051;-77
2020/12/09 06:47:18;;;;;;;63.00;35.72;;;3.40;99.90;;;;;;5115780;28;20059;-77
2020/12/09 06:49:46;;;;;;;63.25;35.88;;;3.30;99.90;;;;;;5116108;28;20104;-76
2020/12/09 06:52:33;;;;;;;62.65;36.72;;;3.30;99.90;;;;;;5118547;28;20102;-75
2020/12/09 06:55:00;;;;;;;60.50;36.17;;;3.40;99.90;;;;;;5124635;28;20075;-75
2020/12/09 06:57:33;;;;;;;60.88;35.35;;;3.40;99.90;;;;;;5122066;28;20047;-76
2020/12/09 07:00:20;;;;;;;63.83;36.05;;;3.40;99.90;;;;;;5115613;28;20044;-76
2020/12/09 07:02:50;;;;;;;59.50;35.63;;;3.40;99.90;;;;;;5115095;28;20074;-75
2020/12/09 07:05:18;;;;;;;64.10;36.45;;;3.50;99.90;;;;;;5123360;28;20058;-77
2020/12/09 07:07:46;;;;;;;61.35;35.95;;;3.50;99.90;;;;;;5123092;28;20047;-78
2020/12/09 07:12:44;;;;;;;61.33;35.92;;;3.60;99.90;;;;;;5104435;28;20052;-75
2020/12/09 07:15:10;;;;;;;66.30;35.08;;;3.60;99.90;;;;;;5115886;28;20127;-75
2020/12/09 07:17:37;;;;;;;63.55;37.03;;;3.60;99.90;;;;;;5115313;28;20126;-74
2020/12/09 07:20:05;;;;;;;57.95;34.97;;;3.60;99.90;;;;;;5114835;28;20127;-75
2020/12/09 07:22:32;;;;;;;58.17;34.97;;;3.50;99.90;;;;;;5114478;28;20051;-76
2020/12/09 07:24:58;;;;;;;60.72;35.08;;;3.50;99.90;;;;;;5111664;28;20138;-75
2020/12/09 07:27:26;;;;;;;62.80;35.15;;;3.50;99.90;;;;;;5114083;28;20529;-77
2020/12/09 07:29:55;;;;;;;63.78;36.60;;;3.40;99.90;;;;;;5112924;28;20491;-77
2020/12/09 07:32:23;;;;;;;61.05;36.78;;;3.50;99.90;;;;;;5114877;28;20046;-76
2020/12/09 07:34:57;;;;;;;63.42;36.95;;;3.40;99.90;;;;;;5115060;28;20141;-77
2020/12/09 07:37:27;;;;;;;62.65;35.90;;;3.40;99.90;;;;;;5114727;28;20071;-77
2020/12/09 07:39:56;;;;;;;65.95;36.35;;;3.40;99.90;;;;;;5114593;28;20051;-77
2020/12/09 07:42:23;;;;;;;64.05;36.58;;;3.40;99.90;;;;;;5112889;28;20135;-78
2020/12/09 07:44:51;;;;;;;64.97;36.83;;;3.40;99.90;;;;;;5115059;28;20126;-77
2020/12/09 07:47:25;;;;;;;68.13;37.85;;;3.40;99.90;;;;;;5114645;28;20518;-77
2020/12/09 07:49:55;;;;;;;66.30;35.85;;;3.40;99.90;;;;;;5113114;28;20079;-77
2020/12/09 07:52:23;;;;;;;66.57;36.85;;;3.40;99.90;;;;;;5113768;27;20122;-76
2020/12/09 07:54:53;;;;;;;64.22;36.22;;;3.40;99.90;;;;;;5114441;28;20116;-76
2020/12/09 07:57:20;;;;;;;64.47;36.47;;;3.50;99.90;;;;;;5114275;28;20126;-76
2020/12/09 07:59:46;;;;;;;64.78;36.30;;;3.40;99.90;;;;;;5114236;27;20044;-75
2020/12/09 08:02:20;;;;;;;64.50;36.92;;;3.40;99.90;;;;;;5113782;28;20138;-75
2020/12/09 08:05:06;;;;;;;66.78;38.40;;;3.40;99.90;;;;;;5111651;28;20151;-77
2020/12/09 08:07:32;;;;;;;71.18;37.53;;;3.30;99.90;;;;;;5114147;28;20447;-77
2020/12/09 08:10:07;;;;;;;71.32;38.28;;;3.20;99.90;;;;;;5113983;28;20138;-75
2020/12/09 08:12:36;;;;;;;70.45;37.97;;;3.20;99.90;;;;;;5113800;28;20055;-74
2020/12/09 08:15:03;;;;;;;68.68;38.70;;;3.20;99.90;;;;;;5113801;28;20055;-76
2020/12/09 08:17:30;;;;;;;71.07;39.28;;;3.10;99.90;;;;;;5114042;28;20500;-76
2020/12/09 08:20:00;;;;;;;66.18;37.90;;;3.10;99.90;;;;;;5113892;28;20130;-76
2020/12/09 08:22:27;;;;;;;73.07;38.25;;;3.00;99.90;;;;;;5113450;28;20109;-77
2020/12/09 08:25:08;;;;;;;68.22;38.53;;;3.10;99.90;;;;;;5113783;28;20126;-77
2020/12/09 08:27:41;;;;;;;66.22;37.10;;;3.20;99.90;;;;;;5114244;28;20587;-77
2020/12/09 08:30:16;;;;;;;70.57;38.80;;;3.10;99.90;;;;;;5113799;28;20135;-76
2020/12/09 08:33:05;;;;;;;70.10;38.92;;;3.10;99.90;;;;;;5113659;28;20120;-76
2020/12/09 08:35:46;;;;;;;71.00;39.08;;;3.10;99.90;;;;;;5113645;28;20052;-75
2020/12/09 08:38:23;;;;;;;70.28;38.35;;;3.10;99.90;;;;;;5113201;28;20086;-77
2020/12/09 08:40:51;;;;;;;66.70;37.53;;;3.10;99.90;;;;;;5113484;28;20127;-76
2020/12/09 08:43:18;;;;;;;69.05;38.67;;;3.10;99.90;;;;;;5113216;28;20074;-75
2020/12/09 08:45:45;;;;;;;69.05;37.95;;;3.10;99.90;;;;;;5113395;28;20395;-75
2020/12/09 08:48:12;;;;;;;71.80;39.30;;;3.10;99.90;;;;;;5113097;28;20450;-76
2020/12/09 08:50:38;;;;;;;68.88;40.05;;;3.10;99.90;;;;;;5113273;28;20052;-76
2020/12/09 08:53:05;;;;;;;98.70;41.20;;;3.10;99.90;;;;;;5112863;28;20048;-76
2020/12/09 08:55:31;;;;;;;85.50;40.17;;;3.10;99.90;;;;;;5113307;28;20083;-76
2020/12/09 08:57:58;;;;;;;78.78;39.80;;;3.10;99.90;;;;;;5113246;28;20328;-77
2020/12/09 09:00:25;;;;;;;74.15;40.25;;;3.00;99.90;;;;;;5112940;28;20122;-75
2020/12/09 09:02:51;;;;;;;74.95;40.72;;;3.00;99.90;;;;;;5113083;28;20134;-77
2020/12/09 09:05:17;;;;;;;75.10;40.25;;;3.00;99.90;;;;;;5113361;28;20081;-75
2020/12/09 09:07:44;;;;;;;68.45;39.22;;;3.10;99.90;;;;;;5113435;28;20086;-76
2020/12/09 09:10:13;;;;;;;71.13;38.88;;;3.20;99.90;;;;;;5113437;28;20126;-76
2020/12/09 09:12:40;;;;;;;65.35;37.75;;;3.30;99.90;;;;;;5113030;28;20078;-77
2020/12/09 09:15:07;;;;;;;65.68;38.22;;;3.30;99.90;;;;;;5113539;28;20090;-77
2020/12/09 09:17:33;;;;;;;62.90;35.55;;;3.30;99.90;;;;;;5113633;28;20079;-76
2020/12/09 09:19:59;;;;;;;62.38;34.88;;;3.40;99.90;;;;;;5113738;28;20130;-78
2020/12/09 09:22:26;;;;;;;64.03;35.20;;;3.50;99.90;;;;;;5112770;28;20130;-77
2020/12/09 09:24:52;;;;;;;66.43;36.33;;;3.50;99.90;;;;;;5113129;28;20102;-77
2020/12/09 09:27:19;;;;;;;57.05;35.13;;;3.60;99.90;;;;;;5113720;28;20051;-77
2020/12/09 09:29:45;;;;;;;61.83;36.13;;;3.60;99.90;;;;;;5113060;28;20074;-76
2020/12/09 09:32:13;;;;;;;65.10;36.83;;;3.60;99.90;;;;;;5112397;28;20131;-77
2020/12/09 09:34:40;;;;;;;58.33;34.75;;;3.70;99.90;;;;;;5114077;28;20051;-75
2020/12/09 09:37:07;;;;;;;60.58;35.20;;;3.80;99.90;;;;;;5113578;28;20079;-77
2020/12/09 09:39:36;;;;;;;64.30;35.28;;;3.90;99.90;;;;;;5114280;28;20044;-77
2020/12/09 09:42:03;;;;;;;63.78;34.33;;;3.90;99.90;;;;;;5113584;28;20039;-76
2020/12/09 09:44:29;;;;;;;60.28;34.90;;;3.90;99.90;;;;;;5113868;28;20052;-76
2020/12/09 09:46:57;;;;;;;56.67;33.63;;;3.90;99.90;;;;;;5113216;28;20122;-77
2020/12/09 09:49:25;;;;;;;57.17;34.55;;;3.90;99.90;;;;;;5112338;28;20495;-77
2020/12/09 09:51:52;;;;;;;63.83;35.20;;;4.00;99.90;;;;;;5111623;28;20131;-77
2020/12/09 09:54:18;;;;;;;56.88;32.55;;;3.90;99.90;;;;;;5112751;28;20506;-76
2020/12/09 09:56:45;;;;;;;58.88;34.83;;;3.90;99.90;;;;;;5112530;28;20134;-76
2020/12/09 09:59:12;;;;;;;61.47;35.70;;;3.90;99.90;;;;;;5112398;28;20086;-77
2020/12/09 10:01:38;;;;;;;59.80;35.80;;;3.80;99.90;;;;;;5112188;28;20579;-76
2020/12/09 10:04:08;;;;;;;59.22;36.53;;;3.90;99.90;;;;;;5112611;28;20146;-76
2020/12/09 10:06:35;;;;;;;62.50;35.17;;;3.90;99.90;;;;;;5112388;28;20063;-76
2020/12/09 10:09:03;;;;;;;58.50;36.15;;;3.90;99.90;;;;;;5112545;28;20134;-78
2020/12/09 10:11:30;;;;;;;60.83;36.40;;;4.10;99.90;;;;;;5111780;28;20052;-77
2020/12/09 10:13:57;;;;;;;63.75;37.00;;;4.10;99.90;;;;;;5112292;28;20048;-77
2020/12/09 10:16:25;;;;;;;61.05;36.70;;;4.20;99.90;;;;;;5112329;28;20467;-77
2020/12/09 10:18:51;;;;;;;58.25;35.55;;;4.20;99.90;;;;;;5112363;28;20047;-76
2020/12/09 10:21:25;;;;;;;64.22;36.28;;;4.30;99.90;;;;;;5111788;28;20079;-76
2020/12/09 10:23:53;;;;;;;61.45;37.53;;;4.40;99.90;;;;;;5112473;28;20101;-77
2020/12/09 10:26:26;;;;;;;59.05;36.53;;;4.60;99.90;;;;;;5112172;28;20530;-77
2020/12/09 10:28:52;;;;;;;61.00;36.33;;;4.80;99.90;;;;;;5112688;28;20051;-77
2020/12/09 10:31:19;;;;;;;58.47;35.33;;;4.90;99.90;;;;;;5111735;28;20077;-78
2020/12/09 10:33:45;;;;;;;58.05;36.78;;;4.90;99.90;;;;;;5112143;28;20083;-77
2020/12/09 10:36:12;;;;;;;60.88;36.40;;;4.90;99.90;;;;;;5112182;28;20131;-76
2020/12/09 10:38:38;;;;;;;61.10;37.38;;;4.90;99.90;;;;;;5112177;28;20087;-77
2020/12/09 10:41:08;;;;;;;60.33;37.17;;;4.90;99.90;;;;;;5116237;28;20071;-79
2020/12/09 10:43:38;;;;;;;63.67;39.60;;;4.80;99.90;;;;;;5119341;28;20083;-79
2020/12/09 10:46:05;;;;;;;61.67;38.05;;;4.80;99.90;;;;;;5118669;28;20108;-79
2020/12/09 10:48:32;;;;;;;62.22;37.72;;;4.80;99.90;;;;;;5118823;28;20095;-79
2020/12/09 10:50:58;;;;;;;67.35;37.88;;;4.80;99.90;;;;;;5117436;28;20056;-79
2020/12/09 10:53:31;;;;;;;64.60;38.53;;;4.70;99.90;;;;;;5118605;28;20048;-79
2020/12/09 10:55:59;;;;;;;62.35;39.13;;;4.80;99.90;;;;;;5118815;28;20047;-79
2020/12/09 10:58:29;;;;;;;63.75;37.50;;;4.80;99.90;;;;;;5117409;28;20052;-79
2020/12/09 11:00:56;;;;;;;60.33;37.28;;;4.80;99.90;;;;;;5115505;28;20483;-79
2020/12/09 11:03:23;;;;;;;68.50;37.83;;;4.80;99.90;;;;;;5119375;28;20075;-78
2020/12/09 11:05:50;;;;;;;69.05;37.70;;;4.90;99.90;;;;;;5119382;28;20130;-78
2020/12/09 11:08:16;;;;;;;58.55;36.45;;;4.90;99.90;;;;;;5120205;28;20083;-79
2020/12/09 11:10:43;;;;;;;63.33;37.30;;;4.90;99.90;;;;;;5119026;28;20078;-79
2020/12/09 11:13:10;;;;;;;65.50;37.53;;;4.90;99.90;;;;;;5119944;28;20083;-78
2020/12/09 11:15:37;;;;;;;66.25;39.40;;;4.90;99.90;;;;;;5121332;28;20097;-79
2020/12/09 11:18:04;;;;;;;79.05;45.45;;;5.00;99.90;;;;;;5121668;28;20414;-79
2020/12/09 11:20:30;;;;;;;79.82;45.92;;;5.10;99.90;;;;;;5119247;28;20097;-78
2020/12/09 11:22:57;;;;;;;80.30;47.05;;;5.10;99.90;;;;;;5119529;28;20059;-78
2020/12/09 11:25:23;;;;;;;85.65;50.13;;;5.10;99.90;;;;;;5120244;28;20537;-78
2020/12/09 11:27:50;;;;;;;79.32;46.03;;;5.10;99.90;;;;;;5118219;28;20079;-78
2020/12/09 11:30:17;;;;;;;76.90;44.42;;;5.10;99.90;;;;;;5115865;28;20079;-78
2020/12/09 11:32:44;;;;;;;79.03;44.83;;;5.10;99.90;;;;;;5119944;28;20082;-79
2020/12/09 11:35:11;;;;;;;80.28;46.13;;;5.10;99.90;;;;;;5120056;28;20047;-78
2020/12/09 11:37:37;;;;;;;77.75;45.72;;;4.90;99.90;;;;;;5119691;28;20086;-78
2020/12/09 11:40:04;;;;;;;86.53;46.83;;;4.80;99.90;;;;;;5120258;28;20094;-77
2020/12/09 11:42:38;;;;;;;75.53;43.25;;;4.90;99.90;;;;;;5117761;28;20470;-79
2020/12/09 11:45:05;;;;;;;82.45;44.67;;;4.90;99.90;;;;;;5119461;28;20040;-79
2020/12/09 11:47:32;;;;;;;81.20;43.35;;;4.90;99.90;;;;;;5118521;28;20093;-77
2020/12/09 11:50:00;;;;;;;75.18;43.60;;;4.90;99.90;;;;;;5117871;28;20502;-78
2020/12/09 11:52:26;;;;;;;77.60;42.78;;;5.00;99.90;;;;;;5118668;28;20139;-79
2020/12/09 11:54:53;;;;;;;78.25;45.55;;;5.10;99.90;;;;;;5119730;28;20089;-80
2020/12/09 11:57:19;;;;;;;86.88;46.33;;;5.10;99.90;;;;;;5115769;28;20075;-78
2020/12/09 11:59:46;;;;;;;83.47;44.95;;;5.20;99.90;;;;;;5118186;28;20079;-78
2020/12/09 12:02:12;;;;;;;78.40;42.90;;;5.20;99.90;;;;;;5118183;28;20051;-79
2020/12/09 12:04:40;;;;;;;77.03;41.22;;;5.20;99.90;;;;;;5117793;28;20143;-79
2020/12/09 12:07:07;;;;;;;72.47;42.25;;;5.30;99.90;;;;;;5121813;28;20052;-79
2020/12/09 12:09:34;;;;;;;69.70;39.28;;;5.40;99.90;;;;;;5121953;28;20052;-82
2020/12/09 12:12:00;;;;;;;75.93;40.55;;;5.50;99.90;;;;;;5098868;28;620361;-79
2020/12/09 12:14:27;;;;;;;74.90;38.70;;;5.50;99.90;;;;;;5121503;28;20059;-79
2020/12/09 12:16:53;;;;;;;63.03;35.72;;;5.50;99.90;;;;;;5122958;28;20094;-80
2020/12/09 12:19:20;;;;;;;61.20;32.97;;;5.40;99.90;;;;;;5124047;28;20055;-79
2020/12/09 12:21:48;;;;;;;57.97;32.53;;;5.40;99.90;;;;;;5122778;28;20538;-82
2020/12/09 12:24:16;;;;;;;55.00;31.85;;;5.40;99.90;;;;;;5120672;28;20504;-78
2020/12/09 12:26:43;;;;;;;55.28;31.17;;;5.50;99.90;;;;;;5119500;28;20075;-81
2020/12/09 12:29:10;;;;;;;51.75;30.73;;;5.40;99.90;;;;;;5120983;28;20090;-79
2020/12/09 12:31:36;;;;;;;54.95;31.70;;;5.40;99.90;;;;;;5117464;28;20094;-78
2020/12/09 12:34:02;;;;;;;53.30;30.60;;;5.30;99.90;;;;;;5118438;28;20083;-79
2020/12/09 12:36:29;;;;;;;53.38;30.77;;;5.40;99.90;;;;;;5118560;28;20157;-79
2020/12/09 12:38:55;;;;;;;52.05;29.65;;;5.30;99.90;;;;;;5117763;28;20126;-79
2020/12/09 12:41:23;;;;;;;47.80;29.25;;;5.40;99.90;;;;;;5116857;28;20095;-79
2020/12/09 12:43:49;;;;;;;51.45;30.85;;;5.40;99.90;;;;;;5118379;28;20086;-79